sensor_id;sensor_type;location;lat;lon;timestamp;P1;durP1;ratioP1;P2;durP2;ratioP2
23001;SDS011;11667;51.706;4.856;2023-05-19T00:02:23;11.70;;;4.85;;
23001;SDS011;11667;51.706;4.856;2023-05-19T00:04:54;9.53;;;4.37;;
23001;SDS011;11667;51.706;4.856;2023-05-19T00:07:24;8.80;;;4.25;;
23001;SDS011;11667;51.706;4.856;2023-05-19T00:09:57;9.80;;;4.62;;
23001;SDS011;11667;51.706;4.856;2023-05-19T00:12:27;8.85;;;4.65;;
23001;SDS011;11667;51.706;4.856;2023-05-19T00:14:57;10.58;;;4.70;;
23001;SDS011;11667;51.706;4.856;2023-05-19T00:17:26;11.73;;;5.28;;
23001;SDS011;11667;51.706;4.856;2023-05-19T00:19:56;10.58;;;4.65;;
23001;SDS011;11667;51.706;4.856;2023-05-19T00:22:25;8.48;;;5.00;;
23001;SDS011;11667;51.706;4.856;2023-05-19T00:24:54;9.58;;;4.62;;
23001;SDS011;11667;51.706;4.856;2023-05-19T00:27:24;8.90;;;4.33;;
23001;SDS011;11667;51.706;4.856;2023-05-19T00:29:53;8.05;;;4.05;;
23001;SDS011;11667;51.706;4.856;2023-05-19T00:32:22;9.20;;;4.50;;
23001;SDS011;11667;51.706;4.856;2023-05-19T00:34:52;9.08;;;4.30;;
23001;SDS011;11667;51.706;4.856;2023-05-19T00:37:21;7.50;;;4.30;;
23001;SDS011;11667;51.706;4.856;2023-05-19T00:39:51;9.13;;;4.42;;
23001;SDS011;11667;51.706;4.856;2023-05-19T00:42:20;7.45;;;4.25;;
23001;SDS011;11667;51.706;4.856;2023-05-19T00:44:50;10.90;;;4.30;;
23001;SDS011;11667;51.706;4.856;2023-05-19T00:47:20;10.43;;;4.20;;
23001;SDS011;11667;51.706;4.856;2023-05-19T00:49:49;10.90;;;4.40;;
23001;SDS011;11667;51.706;4.856;2023-05-19T00:52:19;11.22;;;4.58;;
23001;SDS011;11667;51.706;4.856;2023-05-19T00:54:48;9.40;;;4.58;;
23001;SDS011;11667;51.706;4.856;2023-05-19T00:57:18;10.08;;;4.47;;
23001;SDS011;11667;51.706;4.856;2023-05-19T00:59:49;12.98;;;5.10;;
23001;SDS011;11667;51.706;4.856;2023-05-19T01:02:18;6.53;;;4.58;;
23001;SDS011;11667;51.706;4.856;2023-05-19T01:04:48;9.78;;;4.92;;
23001;SDS011;11667;51.706;4.856;2023-05-19T01:07:20;9.73;;;4.80;;
23001;SDS011;11667;51.706;4.856;2023-05-19T01:09:50;12.18;;;5.17;;
23001;SDS011;11667;51.706;4.856;2023-05-19T01:12:19;9.78;;;5.08;;
23001;SDS011;11667;51.706;4.856;2023-05-19T01:14:49;8.15;;;4.42;;
23001;SDS011;11667;51.706;4.856;2023-05-19T01:17:28;9.40;;;4.90;;
23001;SDS011;11667;51.706;4.856;2023-05-19T01:20:15;9.98;;;4.58;;
23001;SDS011;11667;51.706;4.856;2023-05-19T01:26:03;10.95;;;5.15;;
23001;SDS011;11667;51.706;4.856;2023-05-19T01:30:56;11.50;;;4.80;;
23001;SDS011;11667;51.706;4.856;2023-05-19T01:33:27;7.65;;;4.33;;
23001;SDS011;11667;51.706;4.856;2023-05-19T01:35:58;12.53;;;5.60;;
23001;SDS011;11667;51.706;4.856;2023-05-19T01:38:29;10.95;;;4.80;;
23001;SDS011;11667;51.706;4.856;2023-05-19T01:41:00;10.25;;;4.97;;
23001;SDS011;11667;51.706;4.856;2023-05-19T01:43:33;12.50;;;5.05;;
23001;SDS011;11667;51.706;4.856;2023-05-19T01:46:04;10.93;;;5.10;;
23001;SDS011;11667;51.706;4.856;2023-05-19T01:48:34;9.28;;;4.90;;
23001;SDS011;11667;51.706;4.856;2023-05-19T01:51:05;9.65;;;5.25;;
23001;SDS011;11667;51.706;4.856;2023-05-19T01:53:34;9.88;;;5.05;;
23001;SDS011;11667;51.706;4.856;2023-05-19T01:56:04;9.05;;;4.75;;
23001;SDS011;11667;51.706;4.856;2023-05-19T01:58:44;10.13;;;5.10;;
23001;SDS011;11667;51.706;4.856;2023-05-19T02:07:10;10.80;;;5.42;;
23001;SDS011;11667;51.706;4.856;2023-05-19T02:12:34;11.68;;;5.42;;
23001;SDS011;11667;51.706;4.856;2023-05-19T02:17:42;11.73;;;4.87;;
23001;SDS011;11667;51.706;4.856;2023-05-19T02:20:17;10.50;;;5.42;;
23001;SDS011;11667;51.706;4.856;2023-05-19T02:22:48;11.75;;;5.00;;
23001;SDS011;11667;51.706;4.856;2023-05-19T02:25:18;10.53;;;5.35;;
23001;SDS011;11667;51.706;4.856;2023-05-19T02:27:48;15.43;;;5.28;;
23001;SDS011;11667;51.706;4.856;2023-05-19T02:30:18;15.85;;;6.17;;
23001;SDS011;11667;51.706;4.856;2023-05-19T02:32:47;11.93;;;5.83;;
23001;SDS011;11667;51.706;4.856;2023-05-19T02:35:17;10.08;;;5.42;;
23001;SDS011;11667;51.706;4.856;2023-05-19T02:37:46;11.80;;;5.10;;
23001;SDS011;11667;51.706;4.856;2023-05-19T02:40:16;13.03;;;5.30;;
23001;SDS011;11667;51.706;4.856;2023-05-19T02:42:46;10.75;;;5.42;;
23001;SDS011;11667;51.706;4.856;2023-05-19T02:45:15;11.18;;;5.35;;
23001;SDS011;11667;51.706;4.856;2023-05-19T02:47:45;11.00;;;5.70;;
23001;SDS011;11667;51.706;4.856;2023-05-19T02:50:14;12.30;;;5.50;;
23001;SDS011;11667;51.706;4.856;2023-05-19T02:52:44;11.88;;;5.10;;
23001;SDS011;11667;51.706;4.856;2023-05-19T02:55:13;11.03;;;5.65;;
23001;SDS011;11667;51.706;4.856;2023-05-19T02:57:44;10.45;;;4.90;;
23001;SDS011;11667;51.706;4.856;2023-05-19T03:00:14;13.88;;;5.65;;
23001;SDS011;11667;51.706;4.856;2023-05-19T03:02:43;10.03;;;5.30;;
23001;SDS011;11667;51.706;4.856;2023-05-19T03:05:13;11.50;;;5.58;;
23001;SDS011;11667;51.706;4.856;2023-05-19T03:07:43;13.40;;;5.70;;
23001;SDS011;11667;51.706;4.856;2023-05-19T03:10:12;10.72;;;5.50;;
23001;SDS011;11667;51.706;4.856;2023-05-19T03:12:42;16.25;;;6.08;;
23001;SDS011;11667;51.706;4.856;2023-05-19T03:15:11;13.90;;;5.33;;
23001;SDS011;11667;51.706;4.856;2023-05-19T03:17:41;11.38;;;5.70;;
23001;SDS011;11667;51.706;4.856;2023-05-19T03:20:11;14.28;;;5.72;;
23001;SDS011;11667;51.706;4.856;2023-05-19T03:22:42;14.38;;;5.62;;
23001;SDS011;11667;51.706;4.856;2023-05-19T03:25:12;12.13;;;5.62;;
23001;SDS011;11667;51.706;4.856;2023-05-19T03:27:41;9.63;;;5.37;;
23001;SDS011;11667;51.706;4.856;2023-05-19T03:30:11;18.45;;;5.78;;
23001;SDS011;11667;51.706;4.856;2023-05-19T03:32:45;12.35;;;5.80;;
23001;SDS011;11667;51.706;4.856;2023-05-19T03:35:15;11.83;;;5.90;;
23001;SDS011;11667;51.706;4.856;2023-05-19T03:37:45;10.25;;;5.45;;
23001;SDS011;11667;51.706;4.856;2023-05-19T03:40:15;13.88;;;5.72;;
23001;SDS011;11667;51.706;4.856;2023-05-19T03:42:47;16.00;;;5.70;;
23001;SDS011;11667;51.706;4.856;2023-05-19T03:45:16;14.10;;;6.03;;
23001;SDS011;11667;51.706;4.856;2023-05-19T03:47:46;11.93;;;5.83;;
23001;SDS011;11667;51.706;4.856;2023-05-19T03:50:18;12.33;;;6.05;;
23001;SDS011;11667;51.706;4.856;2023-05-19T03:52:52;12.45;;;6.03;;
23001;SDS011;11667;51.706;4.856;2023-05-19T03:55:23;12.33;;;5.60;;
23001;SDS011;11667;51.706;4.856;2023-05-19T03:57:53;15.38;;;5.60;;
23001;SDS011;11667;51.706;4.856;2023-05-19T04:00:23;12.20;;;6.03;;
23001;SDS011;11667;51.706;4.856;2023-05-19T04:02:52;12.33;;;5.95;;
23001;SDS011;11667;51.706;4.856;2023-05-19T04:05:22;11.03;;;5.85;;
23001;SDS011;11667;51.706;4.856;2023-05-19T04:07:52;13.93;;;6.28;;
23001;SDS011;11667;51.706;4.856;2023-05-19T04:10:22;13.28;;;6.05;;
23001;SDS011;11667;51.706;4.856;2023-05-19T04:12:53;14.35;;;6.28;;
23001;SDS011;11667;51.706;4.856;2023-05-19T04:15:25;13.32;;;6.50;;
23001;SDS011;11667;51.706;4.856;2023-05-19T04:17:54;13.85;;;6.40;;
23001;SDS011;11667;51.706;4.856;2023-05-19T04:20:24;14.07;;;5.87;;
23001;SDS011;11667;51.706;4.856;2023-05-19T04:22:53;11.12;;;6.00;;
23001;SDS011;11667;51.706;4.856;2023-05-19T04:25:22;11.25;;;6.00;;
23001;SDS011;11667;51.706;4.856;2023-05-19T04:27:52;14.85;;;6.05;;
23001;SDS011;11667;51.706;4.856;2023-05-19T04:30:24;12.75;;;5.80;;
23001;SDS011;11667;51.706;4.856;2023-05-19T04:32:55;17.87;;;5.67;;
23001;SDS011;11667;51.706;4.856;2023-05-19T04:35:26;14.28;;;5.83;;
23001;SDS011;11667;51.706;4.856;2023-05-19T04:37:57;13.85;;;6.08;;
23001;SDS011;11667;51.706;4.856;2023-05-19T04:40:30;14.73;;;6.55;;
23001;SDS011;11667;51.706;4.856;2023-05-19T04:42:59;11.45;;;6.08;;
23001;SDS011;11667;51.706;4.856;2023-05-19T04:45:29;12.07;;;5.80;;
23001;SDS011;11667;51.706;4.856;2023-05-19T04:48:00;13.80;;;6.10;;
23001;SDS011;11667;51.706;4.856;2023-05-19T04:50:30;11.10;;;5.97;;
23001;SDS011;11667;51.706;4.856;2023-05-19T04:53:01;14.47;;;5.90;;
23001;SDS011;11667;51.706;4.856;2023-05-19T04:55:30;12.65;;;5.97;;
23001;SDS011;11667;51.706;4.856;2023-05-19T04:58:01;13.45;;;5.97;;
23001;SDS011;11667;51.706;4.856;2023-05-19T05:00:31;13.40;;;6.05;;
23001;SDS011;11667;51.706;4.856;2023-05-19T05:05:33;14.53;;;6.15;;
23001;SDS011;11667;51.706;4.856;2023-05-19T05:08:03;16.25;;;6.15;;
23001;SDS011;11667;51.706;4.856;2023-05-19T05:10:35;12.43;;;5.95;;
23001;SDS011;11667;51.706;4.856;2023-05-19T05:13:04;11.18;;;6.00;;
23001;SDS011;11667;51.706;4.856;2023-05-19T05:15:36;11.15;;;6.45;;
23001;SDS011;11667;51.706;4.856;2023-05-19T05:18:07;12.00;;;6.12;;
23001;SDS011;11667;51.706;4.856;2023-05-19T05:20:38;11.48;;;6.15;;
23001;SDS011;11667;51.706;4.856;2023-05-19T05:23:10;12.60;;;6.12;;
23001;SDS011;11667;51.706;4.856;2023-05-19T05:25:45;14.25;;;6.30;;
23001;SDS011;11667;51.706;4.856;2023-05-19T05:28:15;12.23;;;6.05;;
23001;SDS011;11667;51.706;4.856;2023-05-19T05:30:45;10.93;;;5.67;;
23001;SDS011;11667;51.706;4.856;2023-05-19T05:33:15;12.37;;;5.75;;
23001;SDS011;11667;51.706;4.856;2023-05-19T05:35:46;13.13;;;6.10;;
23001;SDS011;11667;51.706;4.856;2023-05-19T05:38:17;13.03;;;5.90;;
23001;SDS011;11667;51.706;4.856;2023-05-19T05:40:47;11.80;;;5.72;;
23001;SDS011;11667;51.706;4.856;2023-05-19T05:43:16;12.03;;;5.90;;
23001;SDS011;11667;51.706;4.856;2023-05-19T05:45:48;11.35;;;6.05;;
23001;SDS011;11667;51.706;4.856;2023-05-19T05:48:17;11.20;;;5.83;;
23001;SDS011;11667;51.706;4.856;2023-05-19T05:50:47;9.50;;;5.47;;
23001;SDS011;11667;51.706;4.856;2023-05-19T05:53:19;10.93;;;5.60;;
23001;SDS011;11667;51.706;4.856;2023-05-19T05:55:50;13.28;;;6.33;;
23001;SDS011;11667;51.706;4.856;2023-05-19T05:58:22;10.67;;;6.00;;
23001;SDS011;11667;51.706;4.856;2023-05-19T06:00:52;12.63;;;5.62;;
23001;SDS011;11667;51.706;4.856;2023-05-19T06:03:24;12.30;;;5.60;;
23001;SDS011;11667;51.706;4.856;2023-05-19T06:05:55;11.35;;;5.80;;
23001;SDS011;11667;51.706;4.856;2023-05-19T06:08:24;11.40;;;6.00;;
23001;SDS011;11667;51.706;4.856;2023-05-19T06:10:54;11.75;;;6.15;;
23001;SDS011;11667;51.706;4.856;2023-05-19T06:13:25;12.53;;;5.83;;
23001;SDS011;11667;51.706;4.856;2023-05-19T06:15:55;10.72;;;5.65;;
23001;SDS011;11667;51.706;4.856;2023-05-19T06:20:57;10.32;;;5.60;;
23001;SDS011;11667;51.706;4.856;2023-05-19T06:23:27;11.38;;;5.78;;
23001;SDS011;11667;51.706;4.856;2023-05-19T06:25:58;9.28;;;5.50;;
23001;SDS011;11667;51.706;4.856;2023-05-19T06:28:28;11.93;;;5.78;;
23001;SDS011;11667;51.706;4.856;2023-05-19T06:30:58;12.28;;;5.80;;
23001;SDS011;11667;51.706;4.856;2023-05-19T06:33:45;8.30;;;5.42;;
23001;SDS011;11667;51.706;4.856;2023-05-19T06:36:14;10.28;;;5.72;;
23001;SDS011;11667;51.706;4.856;2023-05-19T06:38:44;11.40;;;5.95;;
23001;SDS011;11667;51.706;4.856;2023-05-19T06:41:13;13.40;;;6.22;;
23001;SDS011;11667;51.706;4.856;2023-05-19T06:43:44;11.88;;;6.40;;
23001;SDS011;11667;51.706;4.856;2023-05-19T06:46:14;12.18;;;6.30;;
23001;SDS011;11667;51.706;4.856;2023-05-19T06:48:44;10.40;;;5.40;;
23001;SDS011;11667;51.706;4.856;2023-05-19T06:51:16;12.40;;;6.28;;
23001;SDS011;11667;51.706;4.856;2023-05-19T06:53:47;11.40;;;6.03;;
23001;SDS011;11667;51.706;4.856;2023-05-19T06:56:17;11.53;;;5.30;;
23001;SDS011;11667;51.706;4.856;2023-05-19T06:58:49;10.88;;;5.53;;
23001;SDS011;11667;51.706;4.856;2023-05-19T07:01:19;11.05;;;5.58;;
23001;SDS011;11667;51.706;4.856;2023-05-19T07:03:50;10.63;;;5.40;;
23001;SDS011;11667;51.706;4.856;2023-05-19T07:06:20;13.35;;;6.05;;
23001;SDS011;11667;51.706;4.856;2023-05-19T07:08:50;12.15;;;5.78;;
23001;SDS011;11667;51.706;4.856;2023-05-19T07:11:19;9.60;;;5.50;;
23001;SDS011;11667;51.706;4.856;2023-05-19T07:13:49;8.95;;;5.30;;
23001;SDS011;11667;51.706;4.856;2023-05-19T07:16:20;10.45;;;5.50;;
23001;SDS011;11667;51.706;4.856;2023-05-19T07:18:50;11.05;;;5.80;;
23001;SDS011;11667;51.706;4.856;2023-05-19T07:21:19;12.68;;;5.50;;
23001;SDS011;11667;51.706;4.856;2023-05-19T07:23:49;11.00;;;5.60;;
23001;SDS011;11667;51.706;4.856;2023-05-19T07:26:18;11.73;;;6.10;;
23001;SDS011;11667;51.706;4.856;2023-05-19T07:28:49;11.08;;;5.53;;
23001;SDS011;11667;51.706;4.856;2023-05-19T07:31:18;10.00;;;5.90;;
23001;SDS011;11667;51.706;4.856;2023-05-19T07:33:48;12.75;;;6.00;;
23001;SDS011;11667;51.706;4.856;2023-05-19T07:36:19;8.00;;;5.45;;
23001;SDS011;11667;51.706;4.856;2023-05-19T07:38:49;9.38;;;5.00;;
23001;SDS011;11667;51.706;4.856;2023-05-19T07:41:18;8.73;;;5.35;;
23001;SDS011;11667;51.706;4.856;2023-05-19T07:43:48;9.90;;;4.70;;
23001;SDS011;11667;51.706;4.856;2023-05-19T07:46:18;8.18;;;4.92;;
23001;SDS011;11667;51.706;4.856;2023-05-19T07:48:49;8.48;;;5.22;;
23001;SDS011;11667;51.706;4.856;2023-05-19T07:51:18;12.37;;;4.90;;
23001;SDS011;11667;51.706;4.856;2023-05-19T07:53:47;8.60;;;5.10;;
23001;SDS011;11667;51.706;4.856;2023-05-19T07:56:18;6.55;;;4.75;;
23001;SDS011;11667;51.706;4.856;2023-05-19T07:58:48;8.33;;;4.90;;
23001;SDS011;11667;51.706;4.856;2023-05-19T08:01:18;8.65;;;5.22;;
23001;SDS011;11667;51.706;4.856;2023-05-19T08:03:47;11.85;;;5.85;;
23001;SDS011;11667;51.706;4.856;2023-05-19T08:06:17;9.53;;;4.50;;
23001;SDS011;11667;51.706;4.856;2023-05-19T08:08:47;8.33;;;4.60;;
23001;SDS011;11667;51.706;4.856;2023-05-19T08:11:17;8.80;;;4.50;;
23001;SDS011;11667;51.706;4.856;2023-05-19T08:13:48;8.83;;;4.95;;
23001;SDS011;11667;51.706;4.856;2023-05-19T08:16:17;9.23;;;4.47;;
23001;SDS011;11667;51.706;4.856;2023-05-19T08:18:47;6.90;;;4.28;;
23001;SDS011;11667;51.706;4.856;2023-05-19T08:21:17;8.40;;;4.20;;
23001;SDS011;11667;51.706;4.856;2023-05-19T08:23:46;7.20;;;4.50;;
23001;SDS011;11667;51.706;4.856;2023-05-19T08:26:16;7.72;;;4.12;;
23001;SDS011;11667;51.706;4.856;2023-05-19T08:28:45;9.03;;;4.70;;
23001;SDS011;11667;51.706;4.856;2023-05-19T08:31:14;8.85;;;4.53;;
23001;SDS011;11667;51.706;4.856;2023-05-19T08:33:45;9.95;;;5.00;;
23001;SDS011;11667;51.706;4.856;2023-05-19T08:36:14;5.97;;;3.85;;
23001;SDS011;11667;51.706;4.856;2023-05-19T08:38:44;6.35;;;3.92;;
23001;SDS011;11667;51.706;4.856;2023-05-19T08:41:13;7.70;;;4.45;;
23001;SDS011;11667;51.706;4.856;2023-05-19T08:43:43;8.95;;;4.17;;
23001;SDS011;11667;51.706;4.856;2023-05-19T08:46:12;8.55;;;3.50;;
23001;SDS011;11667;51.706;4.856;2023-05-19T08:48:43;5.72;;;3.52;;
23001;SDS011;11667;51.706;4.856;2023-05-19T08:53:50;5.25;;;3.30;;
23001;SDS011;11667;51.706;4.856;2023-05-19T08:56:23;6.20;;;2.98;;
23001;SDS011;11667;51.706;4.856;2023-05-19T08:58:53;6.78;;;3.40;;
23001;SDS011;11667;51.706;4.856;2023-05-19T09:01:25;7.15;;;3.37;;
23001;SDS011;11667;51.706;4.856;2023-05-19T09:03:55;9.88;;;3.58;;
23001;SDS011;11667;51.706;4.856;2023-05-19T09:06:25;7.55;;;3.30;;
23001;SDS011;11667;51.706;4.856;2023-05-19T09:08:55;6.47;;;3.27;;
23001;SDS011;11667;51.706;4.856;2023-05-19T09:11:24;6.15;;;3.58;;
23001;SDS011;11667;51.706;4.856;2023-05-19T09:13:54;6.37;;;3.30;;
23001;SDS011;11667;51.706;4.856;2023-05-19T09:16:23;6.53;;;3.87;;
23001;SDS011;11667;51.706;4.856;2023-05-19T09:18:55;5.80;;;3.75;;
23001;SDS011;11667;51.706;4.856;2023-05-19T09:21:31;8.25;;;4.20;;
23001;SDS011;11667;51.706;4.856;2023-05-19T09:24:05;7.15;;;3.90;;
23001;SDS011;11667;51.706;4.856;2023-05-19T09:26:43;6.55;;;4.00;;
23001;SDS011;11667;51.706;4.856;2023-05-19T09:29:16;5.97;;;3.50;;
23001;SDS011;11667;51.706;4.856;2023-05-19T09:31:54;8.50;;;3.75;;
23001;SDS011;11667;51.706;4.856;2023-05-19T09:34:22;8.38;;;3.30;;
23001;SDS011;11667;51.706;4.856;2023-05-19T09:36:53;6.00;;;2.90;;
23001;SDS011;11667;51.706;4.856;2023-05-19T09:39:24;10.00;;;3.47;;
23001;SDS011;11667;51.706;4.856;2023-05-19T09:41:55;9.40;;;3.27;;
23001;SDS011;11667;51.706;4.856;2023-05-19T09:44:27;5.50;;;2.90;;
23001;SDS011;11667;51.706;4.856;2023-05-19T09:46:57;23.65;;;3.62;;
23001;SDS011;11667;51.706;4.856;2023-05-19T09:49:28;6.97;;;3.10;;
23001;SDS011;11667;51.706;4.856;2023-05-19T09:52:00;11.93;;;3.15;;
23001;SDS011;11667;51.706;4.856;2023-05-19T09:54:30;11.38;;;3.30;;
23001;SDS011;11667;51.706;4.856;2023-05-19T09:57:02;8.23;;;3.00;;
23001;SDS011;11667;51.706;4.856;2023-05-19T09:59:35;5.83;;;2.92;;
23001;SDS011;11667;51.706;4.856;2023-05-19T10:02:05;6.92;;;3.08;;
23001;SDS011;11667;51.706;4.856;2023-05-19T10:07:06;7.78;;;3.00;;
23001;SDS011;11667;51.706;4.856;2023-05-19T10:09:36;3.80;;;2.58;;
23001;SDS011;11667;51.706;4.856;2023-05-19T10:12:07;4.85;;;2.47;;
23001;SDS011;11667;51.706;4.856;2023-05-19T10:14:37;4.80;;;2.17;;
23001;SDS011;11667;51.706;4.856;2023-05-19T10:17:06;3.33;;;1.42;;
23001;SDS011;11667;51.706;4.856;2023-05-19T10:19:36;4.65;;;1.95;;
23001;SDS011;11667;51.706;4.856;2023-05-19T10:22:06;3.80;;;1.50;;
23001;SDS011;11667;51.706;4.856;2023-05-19T10:24:35;3.50;;;1.50;;
23001;SDS011;11667;51.706;4.856;2023-05-19T10:27:07;3.00;;;1.62;;
23001;SDS011;11667;51.706;4.856;2023-05-19T10:29:39;4.60;;;1.40;;
23001;SDS011;11667;51.706;4.856;2023-05-19T10:32:11;3.10;;;1.50;;
23001;SDS011;11667;51.706;4.856;2023-05-19T10:34:53;2.72;;;1.50;;
23001;SDS011;11667;51.706;4.856;2023-05-19T10:40:02;2.60;;;1.20;;
23001;SDS011;11667;51.706;4.856;2023-05-19T10:42:37;3.60;;;1.60;;
23001;SDS011;11667;51.706;4.856;2023-05-19T10:45:16;2.87;;;1.55;;
23001;SDS011;11667;51.706;4.856;2023-05-19T10:47:46;4.20;;;1.50;;
23001;SDS011;11667;51.706;4.856;2023-05-19T10:50:18;4.00;;;1.70;;
23001;SDS011;11667;51.706;4.856;2023-05-19T10:52:52;3.58;;;1.42;;
23001;SDS011;11667;51.706;4.856;2023-05-19T10:58:14;1.80;;;1.30;;
23001;SDS011;11667;51.706;4.856;2023-05-19T11:00:44;4.20;;;1.25;;
23001;SDS011;11667;51.706;4.856;2023-05-19T11:03:16;4.10;;;1.60;;
23001;SDS011;11667;51.706;4.856;2023-05-19T11:05:47;4.95;;;1.35;;
23001;SDS011;11667;51.706;4.856;2023-05-19T11:08:30;4.75;;;1.35;;
23001;SDS011;11667;51.706;4.856;2023-05-19T11:11:14;3.05;;;1.32;;
23001;SDS011;11667;51.706;4.856;2023-05-19T11:13:54;4.45;;;1.55;;
23001;SDS011;11667;51.706;4.856;2023-05-19T11:16:30;2.20;;;1.15;;
23001;SDS011;11667;51.706;4.856;2023-05-19T11:19:00;2.60;;;1.50;;
23001;SDS011;11667;51.706;4.856;2023-05-19T11:21:40;2.40;;;1.20;;
23001;SDS011;11667;51.706;4.856;2023-05-19T11:24:32;2.37;;;1.30;;
23001;SDS011;11667;51.706;4.856;2023-05-19T11:29:56;3.10;;;1.30;;
23001;SDS011;11667;51.706;4.856;2023-05-19T11:32:32;4.37;;;1.42;;
23001;SDS011;11667;51.706;4.856;2023-05-19T11:35:02;3.70;;;1.60;;
23001;SDS011;11667;51.706;4.856;2023-05-19T11:37:32;4.42;;;1.77;;
23001;SDS011;11667;51.706;4.856;2023-05-19T11:40:03;3.25;;;1.50;;
23001;SDS011;11667;51.706;4.856;2023-05-19T11:42:35;2.40;;;1.20;;
23001;SDS011;11667;51.706;4.856;2023-05-19T11:45:05;3.62;;;1.40;;
23001;SDS011;11667;51.706;4.856;2023-05-19T11:47:35;4.75;;;1.57;;
23001;SDS011;11667;51.706;4.856;2023-05-19T11:50:06;2.27;;;1.47;;
23001;SDS011;11667;51.706;4.856;2023-05-19T11:52:38;3.20;;;1.20;;
23001;SDS011;11667;51.706;4.856;2023-05-19T11:55:14;1.75;;;1.10;;
23001;SDS011;11667;51.706;4.856;2023-05-19T11:58:23;4.22;;;1.32;;
23001;SDS011;11667;51.706;4.856;2023-05-19T12:00:29;3.77;;;1.52;;
23001;SDS011;11667;51.706;4.856;2023-05-19T12:03:01;2.75;;;1.20;;
23001;SDS011;11667;51.706;4.856;2023-05-19T12:05:31;3.55;;;1.35;;
23001;SDS011;11667;51.706;4.856;2023-05-19T12:08:05;2.70;;;1.45;;
23001;SDS011;11667;51.706;4.856;2023-05-19T12:10:35;2.42;;;1.35;;
23001;SDS011;11667;51.706;4.856;2023-05-19T12:13:05;4.58;;;1.50;;
23001;SDS011;11667;51.706;4.856;2023-05-19T12:15:36;2.67;;;1.60;;
23001;SDS011;11667;51.706;4.856;2023-05-19T12:18:06;2.92;;;1.50;;
23001;SDS011;11667;51.706;4.856;2023-05-19T12:20:36;6.10;;;1.95;;
23001;SDS011;11667;51.706;4.856;2023-05-19T12:23:05;6.20;;;2.27;;
23001;SDS011;11667;51.706;4.856;2023-05-19T12:25:35;3.95;;;2.42;;
23001;SDS011;11667;51.706;4.856;2023-05-19T12:28:05;4.62;;;1.72;;
23001;SDS011;11667;51.706;4.856;2023-05-19T12:30:34;3.77;;;1.47;;
23001;SDS011;11667;51.706;4.856;2023-05-19T12:33:05;4.15;;;1.60;;
23001;SDS011;11667;51.706;4.856;2023-05-19T12:35:36;3.83;;;1.60;;
23001;SDS011;11667;51.706;4.856;2023-05-19T12:38:05;4.78;;;1.50;;
23001;SDS011;11667;51.706;4.856;2023-05-19T12:40:35;3.42;;;1.50;;
23001;SDS011;11667;51.706;4.856;2023-05-19T12:43:06;3.10;;;1.60;;
23001;SDS011;11667;51.706;4.856;2023-05-19T12:45:36;3.20;;;1.50;;
23001;SDS011;11667;51.706;4.856;2023-05-19T12:48:11;4.12;;;1.80;;
23001;SDS011;11667;51.706;4.856;2023-05-19T12:50:43;3.47;;;1.42;;
23001;SDS011;11667;51.706;4.856;2023-05-19T12:53:13;5.12;;;1.60;;
23001;SDS011;11667;51.706;4.856;2023-05-19T12:55:43;2.92;;;1.50;;
23001;SDS011;11667;51.706;4.856;2023-05-19T12:58:14;4.65;;;1.60;;
23001;SDS011;11667;51.706;4.856;2023-05-19T13:00:44;3.60;;;1.40;;
23001;SDS011;11667;51.706;4.856;2023-05-19T13:03:16;4.58;;;1.47;;
23001;SDS011;11667;51.706;4.856;2023-05-19T13:05:49;4.30;;;1.50;;
23001;SDS011;11667;51.706;4.856;2023-05-19T13:08:19;5.00;;;1.80;;
23001;SDS011;11667;51.706;4.856;2023-05-19T13:10:50;4.30;;;1.60;;
23001;SDS011;11667;51.706;4.856;2023-05-19T13:13:20;2.15;;;1.50;;
23001;SDS011;11667;51.706;4.856;2023-05-19T13:15:49;3.25;;;1.52;;
23001;SDS011;11667;51.706;4.856;2023-05-19T13:18:20;3.90;;;1.70;;
23001;SDS011;11667;51.706;4.856;2023-05-19T13:20:49;2.80;;;1.65;;
23001;SDS011;11667;51.706;4.856;2023-05-19T13:23:19;3.87;;;1.65;;
23001;SDS011;11667;51.706;4.856;2023-05-19T13:25:49;2.83;;;1.47;;
23001;SDS011;11667;51.706;4.856;2023-05-19T13:28:19;11.78;;;2.37;;
23001;SDS011;11667;51.706;4.856;2023-05-19T13:30:48;4.30;;;1.50;;
23001;SDS011;11667;51.706;4.856;2023-05-19T13:33:18;6.55;;;1.85;;
23001;SDS011;11667;51.706;4.856;2023-05-19T13:35:48;3.72;;;1.62;;
23001;SDS011;11667;51.706;4.856;2023-05-19T13:38:17;5.55;;;1.80;;
23001;SDS011;11667;51.706;4.856;2023-05-19T13:40:47;3.70;;;1.80;;
23001;SDS011;11667;51.706;4.856;2023-05-19T13:43:16;5.45;;;1.70;;
23001;SDS011;11667;51.706;4.856;2023-05-19T13:45:46;2.85;;;1.70;;
23001;SDS011;11667;51.706;4.856;2023-05-19T13:48:16;3.10;;;1.75;;
23001;SDS011;11667;51.706;4.856;2023-05-19T13:50:45;4.47;;;1.62;;
23001;SDS011;11667;51.706;4.856;2023-05-19T13:53:14;5.70;;;1.90;;
23001;SDS011;11667;51.706;4.856;2023-05-19T13:55:44;5.12;;;1.92;;
23001;SDS011;11667;51.706;4.856;2023-05-19T13:58:14;3.27;;;1.60;;
23001;SDS011;11667;51.706;4.856;2023-05-19T14:00:43;4.05;;;1.60;;
23001;SDS011;11667;51.706;4.856;2023-05-19T14:03:13;5.62;;;1.50;;
23001;SDS011;11667;51.706;4.856;2023-05-19T14:05:43;2.85;;;1.47;;
23001;SDS011;11667;51.706;4.856;2023-05-19T14:08:12;3.02;;;1.80;;
23001;SDS011;11667;51.706;4.856;2023-05-19T14:10:42;4.33;;;1.75;;
23001;SDS011;11667;51.706;4.856;2023-05-19T14:13:14;216.80;;;13.72;;
23001;SDS011;11667;51.706;4.856;2023-05-19T14:15:45;4.22;;;1.72;;
23001;SDS011;11667;51.706;4.856;2023-05-19T14:18:16;4.08;;;1.60;;
23001;SDS011;11667;51.706;4.856;2023-05-19T14:20:45;3.52;;;1.50;;
23001;SDS011;11667;51.706;4.856;2023-05-19T14:23:14;3.52;;;1.62;;
23001;SDS011;11667;51.706;4.856;2023-05-19T14:25:44;3.05;;;1.47;;
23001;SDS011;11667;51.706;4.856;2023-05-19T14:28:13;2.52;;;1.52;;
23001;SDS011;11667;51.706;4.856;2023-05-19T14:30:43;2.33;;;1.57;;
23001;SDS011;11667;51.706;4.856;2023-05-19T14:33:13;3.47;;;1.50;;
23001;SDS011;11667;51.706;4.856;2023-05-19T14:35:43;3.58;;;1.50;;
23001;SDS011;11667;51.706;4.856;2023-05-19T14:38:12;2.98;;;1.82;;
23001;SDS011;11667;51.706;4.856;2023-05-19T14:40:42;3.52;;;1.82;;
23001;SDS011;11667;51.706;4.856;2023-05-19T14:43:12;2.58;;;1.70;;
23001;SDS011;11667;51.706;4.856;2023-05-19T14:45:42;3.62;;;1.52;;
23001;SDS011;11667;51.706;4.856;2023-05-19T14:48:12;3.70;;;1.87;;
23001;SDS011;11667;51.706;4.856;2023-05-19T14:50:42;3.60;;;2.00;;
23001;SDS011;11667;51.706;4.856;2023-05-19T14:53:11;4.08;;;1.90;;
23001;SDS011;11667;51.706;4.856;2023-05-19T14:55:41;3.87;;;1.80;;
23001;SDS011;11667;51.706;4.856;2023-05-19T14:58:11;2.98;;;1.70;;
23001;SDS011;11667;51.706;4.856;2023-05-19T15:00:42;3.85;;;1.90;;
23001;SDS011;11667;51.706;4.856;2023-05-19T15:03:11;4.95;;;2.17;;
23001;SDS011;11667;51.706;4.856;2023-05-19T15:05:41;4.62;;;1.82;;
23001;SDS011;11667;51.706;4.856;2023-05-19T15:08:10;4.47;;;1.98;;
23001;SDS011;11667;51.706;4.856;2023-05-19T15:10:40;3.77;;;2.20;;
23001;SDS011;11667;51.706;4.856;2023-05-19T15:13:10;6.87;;;2.12;;
23001;SDS011;11667;51.706;4.856;2023-05-19T15:15:40;4.80;;;1.82;;
23001;SDS011;11667;51.706;4.856;2023-05-19T15:18:09;3.98;;;2.10;;
23001;SDS011;11667;51.706;4.856;2023-05-19T15:20:40;5.03;;;2.00;;
23001;SDS011;11667;51.706;4.856;2023-05-19T15:23:10;7.75;;;2.10;;
23001;SDS011;11667;51.706;4.856;2023-05-19T15:25:40;4.37;;;1.98;;
23001;SDS011;11667;51.706;4.856;2023-05-19T15:28:09;3.90;;;1.92;;
23001;SDS011;11667;51.706;4.856;2023-05-19T15:30:39;4.12;;;2.10;;
23001;SDS011;11667;51.706;4.856;2023-05-19T15:33:10;6.28;;;1.98;;
23001;SDS011;11667;51.706;4.856;2023-05-19T15:35:40;3.80;;;2.00;;
23001;SDS011;11667;51.706;4.856;2023-05-19T15:38:09;5.60;;;2.50;;
23001;SDS011;11667;51.706;4.856;2023-05-19T15:40:40;3.70;;;1.85;;